createdAt,value
2024-04-12T00:01:33.302Z,8.69
2024-04-12T00:04:03.026Z,8.65
2024-04-12T00:06:29.919Z,8.63
2024-04-12T00:08:57.171Z,8.59
2024-04-12T00:11:24.177Z,8.46
2024-04-12T00:13:51.619Z,8.30
2024-04-12T00:16:18.863Z,8.23
2024-04-12T00:18:46.194Z,8.35
2024-04-12T00:21:13.195Z,8.44
2024-04-12T00:23:40.099Z,8.47
2024-04-12T00:26:08.267Z,8.39
2024-04-12T00:28:35.186Z,8.54
2024-04-12T00:31:02.949Z,8.61
2024-04-12T00:33:31.259Z,8.46
2024-04-12T00:36:02.573Z,8.40
2024-04-12T00:38:29.447Z,8.48
2024-04-12T00:40:56.720Z,8.47
2024-04-12T00:43:23.984Z,8.30
2024-04-12T00:45:50.871Z,8.19
2024-04-12T00:48:19.539Z,8.22
2024-04-12T00:50:46.471Z,8.25
2024-04-12T00:53:15.351Z,8.26
2024-04-12T00:55:42.559Z,8.06
2024-04-12T00:58:12.329Z,8.06
2024-04-12T01:00:39.495Z,8.15
2024-04-12T01:03:07.154Z,8.06
2024-04-12T01:05:38.052Z,7.97
2024-04-12T01:08:05.230Z,8.08
2024-04-12T01:10:32.559Z,8.16
2024-04-12T01:13:00.128Z,7.93
2024-04-12T01:15:28.268Z,7.93
2024-04-12T01:17:55.244Z,7.91
2024-04-12T01:20:22.228Z,7.88
2024-04-12T01:22:50.273Z,7.82
2024-04-12T01:25:17.176Z,7.83
2024-04-12T01:27:44.527Z,7.81
2024-04-12T01:30:12.817Z,7.92
2024-04-12T01:32:39.813Z,7.82
2024-04-12T01:35:06.954Z,7.90
2024-04-12T01:37:33.841Z,7.87
2024-04-12T01:40:01.032Z,8.02
2024-04-12T01:42:27.927Z,8.24
2024-04-12T01:44:57.858Z,8.68
2024-04-12T01:47:26.074Z,8.25
2024-04-12T01:49:56.122Z,7.88
2024-04-12T01:52:23.055Z,7.84
2024-04-12T01:54:49.929Z,7.74
2024-04-12T01:57:17.161Z,7.71
2024-04-12T01:59:44.113Z,7.68
2024-04-12T02:02:10.980Z,7.68
2024-04-12T02:04:38.317Z,7.62
2024-04-12T02:07:05.368Z,7.74
2024-04-12T02:09:35.285Z,7.70
2024-04-12T02:12:02.705Z,7.57
2024-04-12T02:14:29.583Z,7.54
2024-04-12T02:16:57.989Z,7.56
2024-04-12T02:19:27.781Z,7.62
2024-04-12T02:21:55.627Z,7.58
2024-04-12T02:24:23.000Z,7.52
2024-04-12T02:26:50.443Z,7.49
2024-04-12T02:29:17.366Z,7.53
2024-04-12T02:31:44.296Z,7.61
2024-04-12T02:34:11.160Z,7.55
2024-04-12T02:36:38.390Z,7.40
2024-04-12T02:39:05.434Z,7.33
2024-04-12T02:41:32.445Z,7.35
2024-04-12T02:43:59.500Z,7.35
2024-04-12T02:46:26.380Z,7.94
2024-04-12T02:48:55.179Z,8.23
2024-04-12T02:51:22.124Z,8.18
2024-04-12T02:53:49.234Z,7.70
2024-04-12T02:56:18.260Z,7.58
2024-04-12T02:58:46.376Z,7.63
2024-04-12T03:01:20.548Z,7.46
2024-04-12T03:03:52.076Z,7.25
2024-04-12T03:06:23.832Z,7.21
2024-04-12T03:09:02.859Z,7.45
2024-04-12T03:11:31.073Z,7.38
2024-04-12T03:13:59.316Z,7.32
2024-04-12T03:16:26.240Z,7.27
2024-04-12T03:18:53.839Z,7.14
2024-04-12T03:21:21.250Z,7.00
2024-04-12T03:23:49.107Z,7.00
2024-04-12T03:26:18.025Z,7.02
2024-04-12T03:28:45.442Z,6.96
2024-04-12T03:31:15.875Z,7.07
2024-04-12T03:33:43.213Z,7.18
2024-04-12T03:36:17.128Z,7.21
2024-04-12T03:38:47.125Z,7.14
2024-04-12T03:41:14.036Z,7.16
2024-04-12T03:43:40.948Z,6.99
2024-04-12T03:46:08.046Z,6.99
2024-04-12T03:48:35.090Z,6.87
2024-04-12T03:51:02.065Z,6.79
2024-04-12T03:53:28.987Z,6.75
2024-04-12T03:55:57.212Z,7.05
2024-04-12T03:58:24.423Z,7.17
2024-04-12T04:00:51.392Z,7.06
2024-04-12T04:03:18.683Z,6.99
2024-04-12T04:05:45.717Z,6.98
2024-04-12T04:08:12.572Z,7.04
2024-04-12T04:10:39.899Z,6.98
2024-04-12T04:13:26.717Z,7.11
2024-04-12T04:16:01.473Z,7.05
2024-04-12T04:18:47.596Z,7.07
2024-04-12T04:21:14.563Z,7.19
2024-04-12T04:23:42.080Z,7.20
2024-04-12T04:26:09.765Z,7.22
2024-04-12T04:28:37.147Z,7.18
2024-04-12T04:31:05.090Z,7.23
2024-04-12T04:33:32.447Z,7.29
2024-04-12T04:35:59.825Z,7.16
2024-04-12T04:38:26.705Z,7.04
2024-04-12T04:41:00.481Z,7.01
2024-04-12T04:43:27.421Z,7.15
2024-04-12T04:45:54.370Z,7.35
2024-04-12T04:48:21.297Z,7.33
2024-04-12T04:50:48.237Z,7.35
2024-04-12T04:53:15.890Z,7.41
2024-04-12T04:55:44.901Z,7.38
2024-04-12T04:58:11.868Z,7.38
2024-04-12T05:00:38.855Z,7.33
2024-04-12T05:03:05.767Z,7.42
2024-04-12T05:05:33.212Z,7.51
2024-04-12T05:08:01.273Z,7.48
2024-04-12T05:10:31.327Z,7.46
2024-04-12T05:12:58.242Z,7.53
2024-04-12T05:15:28.226Z,7.63
2024-04-12T05:17:55.546Z,7.80
2024-04-12T05:20:22.510Z,8.10
2024-04-12T05:22:49.391Z,7.99
2024-04-12T05:25:19.378Z,8.01
2024-04-12T05:27:46.225Z,8.02
2024-04-12T05:30:14.469Z,8.03
2024-04-12T05:32:41.883Z,7.92
2024-04-12T05:35:09.328Z,8.10
2024-04-12T05:37:36.172Z,8.73
2024-04-12T05:40:06.642Z,8.59
2024-04-12T05:42:34.211Z,8.61
2024-04-12T05:45:01.506Z,8.57
2024-04-12T05:47:28.546Z,8.52
2024-04-12T05:49:57.236Z,8.62
2024-04-12T05:52:24.782Z,8.57
2024-04-12T05:54:51.642Z,8.67
2024-04-12T05:57:18.539Z,9.02
2024-04-12T05:59:49.107Z,9.17
2024-04-12T06:02:16.462Z,9.30
2024-04-12T06:04:46.058Z,9.58
2024-04-12T06:07:13.402Z,10.47
2024-04-12T06:09:40.603Z,11.17
2024-04-12T06:12:07.882Z,10.73
2024-04-12T06:14:36.901Z,11.29
2024-04-12T06:17:03.879Z,12.03
2024-04-12T06:19:31.834Z,12.63
2024-04-12T06:21:59.700Z,12.62
2024-04-12T06:24:26.584Z,12.65
2024-04-12T06:26:57.108Z,12.56
2024-04-12T06:29:32.554Z,12.38
2024-04-12T06:32:03.749Z,12.89
2024-04-12T06:34:30.624Z,13.11
2024-04-12T06:36:57.675Z,13.10
2024-04-12T06:39:24.795Z,13.17
2024-04-12T06:41:51.738Z,13.74
2024-04-12T06:44:19.832Z,13.74
2024-04-12T06:46:53.295Z,13.62
2024-04-12T06:49:23.145Z,12.96
2024-04-12T06:51:52.525Z,13.53
2024-04-12T06:54:19.451Z,13.34
2024-04-12T06:56:47.669Z,13.48
2024-04-12T06:59:14.977Z,13.33
2024-04-12T07:01:41.834Z,13.70
2024-04-12T07:04:09.207Z,14.04
2024-04-12T07:06:38.724Z,13.98
2024-04-12T07:09:08.394Z,13.82
2024-04-12T07:11:38.333Z,13.70
2024-04-12T07:14:05.623Z,13.84
2024-04-12T07:16:32.933Z,14.16
2024-04-12T07:19:00.225Z,13.47
2024-04-12T07:21:27.094Z,13.71
2024-04-12T07:23:56.919Z,13.37
2024-04-12T07:26:24.250Z,13.87
2024-04-12T07:29:02.877Z,14.05
2024-04-12T07:31:31.251Z,14.21
2024-04-12T07:33:59.464Z,14.15
2024-04-12T07:36:27.303Z,14.44
2024-04-12T07:38:54.163Z,14.48
2024-04-12T07:41:21.453Z,14.13
2024-04-12T07:43:48.764Z,14.29
2024-04-12T07:46:16.399Z,14.14
2024-04-12T07:48:43.283Z,14.56
2024-04-12T07:51:10.249Z,14.61
2024-04-12T07:53:38.708Z,14.82
2024-04-12T07:56:05.890Z,14.83
2024-04-12T07:58:36.165Z,14.52
2024-04-12T08:01:12.810Z,14.32
2024-04-12T08:03:40.276Z,13.95
2024-04-12T08:06:08.540Z,14.24
2024-04-12T08:08:35.896Z,14.68
2024-04-12T08:11:03.356Z,14.38
2024-04-12T08:13:30.681Z,14.09
2024-04-12T08:15:57.582Z,14.48
2024-04-12T08:18:27.811Z,15.19
2024-04-12T08:20:54.787Z,14.74
2024-04-12T08:23:21.675Z,14.25
2024-04-12T08:25:48.536Z,14.66
2024-04-12T08:28:17.698Z,14.72
2024-04-12T08:30:44.658Z,14.92
2024-04-12T08:33:11.681Z,14.98
2024-04-12T08:35:41.070Z,14.73
2024-04-12T08:38:08.054Z,15.00
2024-04-12T08:40:35.730Z,15.02
2024-04-12T08:43:04.123Z,15.41
2024-04-12T08:45:31.025Z,15.71
2024-04-12T08:47:58.449Z,15.44
2024-04-12T08:50:26.325Z,15.48
2024-04-12T08:52:53.528Z,15.27
2024-04-12T08:55:22.435Z,15.53
2024-04-12T08:57:51.465Z,15.92
2024-04-12T09:00:18.975Z,16.30
2024-04-12T09:02:50.557Z,16.27
2024-04-12T09:05:22.093Z,16.67
2024-04-12T09:07:55.238Z,16.39
2024-04-12T09:10:27.017Z,15.47
2024-04-12T09:12:55.028Z,16.05
2024-04-12T09:15:26.423Z,16.20
2024-04-12T09:17:53.852Z,16.32
2024-04-12T09:20:21.026Z,16.04
2024-04-12T09:22:50.695Z,16.07
2024-04-12T09:25:20.375Z,15.85
2024-04-12T09:27:50.241Z,15.69
2024-04-12T09:30:17.568Z,15.73
2024-04-12T09:32:44.735Z,15.98
2024-04-12T09:35:13.348Z,15.65
2024-04-12T09:37:43.453Z,15.90
2024-04-12T09:40:10.430Z,16.05
2024-04-12T09:42:38.146Z,15.97
2024-04-12T09:45:08.413Z,16.42
2024-04-12T09:49:14.138Z,16.32
2024-04-12T09:55:18.433Z,16.43
2024-04-12T09:57:39.655Z,16.81
2024-04-12T10:00:10.276Z,16.90
2024-04-12T10:02:41.699Z,17.08
2024-04-12T10:05:09.576Z,17.38
2024-04-12T10:07:39.473Z,17.23
2024-04-12T10:10:08.036Z,17.28
2024-04-12T10:12:37.982Z,17.00
2024-04-12T10:15:06.157Z,17.24
2024-04-12T10:17:33.686Z,17.43
2024-04-12T10:20:03.982Z,18.17
2024-04-12T10:22:30.902Z,18.24
2024-04-12T10:25:02.959Z,18.02
2024-04-12T10:27:29.911Z,17.87
2024-04-12T10:29:57.027Z,18.00
2024-04-12T10:32:23.999Z,17.84
2024-04-12T10:34:52.434Z,17.77
2024-04-12T10:37:20.724Z,18.48
2024-04-12T10:39:48.677Z,18.29
2024-04-12T10:42:16.328Z,18.68
2024-04-12T10:44:44.910Z,18.18
2024-04-12T10:47:12.441Z,18.37
2024-04-12T10:49:39.998Z,18.16
2024-04-12T10:52:10.305Z,18.23
2024-04-12T10:54:37.341Z,18.57
2024-04-12T10:57:07.792Z,19.11
2024-04-12T10:59:38.362Z,18.72
2024-04-12T11:02:06.078Z,18.88
2024-04-12T11:04:33.125Z,18.47
2024-04-12T11:07:01.755Z,19.14
2024-04-12T11:09:30.087Z,18.93
2024-04-12T11:11:57.516Z,19.18
2024-04-12T11:14:24.445Z,19.09
2024-04-12T11:16:51.879Z,19.60
2024-04-12T11:19:23.888Z,19.15
2024-04-12T11:21:51.791Z,19.53
2024-04-12T11:24:19.384Z,19.45
2024-04-12T11:26:46.849Z,19.31
2024-04-12T11:29:18.158Z,19.71
2024-04-12T11:31:45.031Z,19.66
2024-04-12T11:34:13.512Z,18.96
2024-04-12T11:36:42.094Z,19.58
2024-04-12T11:39:10.966Z,19.62
2024-04-12T11:41:38.269Z,19.26
2024-04-12T11:44:05.427Z,19.16
2024-04-12T11:46:35.217Z,19.18
2024-04-12T11:49:04.445Z,19.68
2024-04-12T11:51:39.306Z,19.51
2024-04-12T11:54:06.726Z,20.00
2024-04-12T11:56:34.089Z,19.66
2024-04-12T11:59:01.065Z,20.04
2024-04-12T12:01:34.313Z,20.84
2024-04-12T12:04:01.274Z,20.74
2024-04-12T12:06:28.193Z,21.06
2024-04-12T12:08:56.404Z,20.94
2024-04-12T12:11:26.157Z,20.72
2024-04-12T12:13:55.987Z,21.23
2024-04-12T12:16:23.335Z,21.17
2024-04-12T12:18:50.344Z,20.85
2024-04-12T12:21:17.914Z,20.81
2024-04-12T12:23:47.655Z,21.42
2024-04-12T12:26:14.599Z,21.25
2024-04-12T12:28:46.524Z,21.08
2024-04-12T12:31:13.695Z,20.77
2024-04-12T12:33:41.925Z,20.47
2024-04-12T12:36:09.607Z,21.22
2024-04-12T12:38:39.535Z,21.38
2024-04-12T12:41:09.186Z,21.36
2024-04-12T12:43:37.434Z,21.35
2024-04-12T12:46:05.509Z,21.29
2024-04-12T12:48:33.655Z,21.45
2024-04-12T12:51:01.737Z,21.77
2024-04-12T12:53:31.744Z,21.17
2024-04-12T12:55:59.018Z,21.54
2024-04-12T12:58:31.354Z,21.72
2024-04-12T13:00:58.866Z,22.11
2024-04-12T13:03:25.945Z,22.35
2024-04-12T13:05:53.983Z,22.17
2024-04-12T13:08:20.963Z,22.33
2024-04-12T13:10:48.810Z,22.90
2024-04-12T13:13:16.835Z,22.09
2024-04-12T13:15:46.673Z,22.89
2024-04-12T13:18:13.955Z,23.43
2024-04-12T13:20:41.308Z,23.40
2024-04-12T13:23:08.243Z,23.15
2024-04-12T13:25:35.172Z,23.20
2024-04-12T13:28:05.598Z,23.45
2024-04-12T13:30:42.881Z,23.50
2024-04-12T13:33:10.157Z,23.37
2024-04-12T13:38:34.722Z,23.65
2024-04-12T13:41:08.816Z,23.61
2024-04-12T13:43:36.131Z,24.09
2024-04-12T13:46:04.379Z,24.66
2024-04-12T13:48:31.405Z,24.27
2024-04-12T13:50:59.077Z,24.37
2024-04-12T13:53:28.822Z,23.99
2024-04-12T13:55:56.105Z,24.09
2024-04-12T13:58:23.435Z,23.90
2024-04-12T14:00:51.039Z,23.43
2024-04-12T14:03:19.871Z,23.23
2024-04-12T14:05:48.127Z,23.50
2024-04-12T14:08:15.458Z,24.15
2024-04-12T14:10:45.089Z,24.29
2024-04-12T14:13:14.899Z,24.27
2024-04-12T14:15:42.203Z,24.43
2024-04-12T14:18:09.623Z,23.96
2024-04-12T14:20:36.865Z,24.81
2024-04-12T14:23:04.406Z,24.66
2024-04-12T14:25:31.753Z,24.15
2024-04-12T14:28:01.880Z,24.45
2024-04-12T14:30:30.163Z,24.86
2024-04-12T14:33:02.349Z,24.24
2024-04-12T14:35:29.733Z,24.31
2024-04-12T14:37:56.867Z,24.78
2024-04-12T14:40:24.208Z,25.18
2024-04-12T14:42:56.648Z,24.34
2024-04-12T14:45:23.942Z,24.07
2024-04-12T14:47:59.194Z,24.46
2024-04-12T14:50:35.124Z,24.55
2024-04-12T14:53:04.658Z,25.04
2024-04-12T14:55:32.150Z,24.46
2024-04-12T14:57:59.642Z,23.25
2024-04-12T15:00:26.807Z,23.46
2024-04-12T15:02:54.231Z,23.72
2024-04-12T15:05:21.168Z,23.45
2024-04-12T15:07:48.441Z,24.01
2024-04-12T15:10:20.266Z,23.65
2024-04-12T15:12:47.220Z,24.52
2024-04-12T15:15:14.493Z,24.42
2024-04-12T15:17:41.457Z,23.88
2024-04-12T15:20:09.156Z,25.08
2024-04-12T15:22:36.041Z,25.49
2024-04-12T15:25:08.116Z,23.79
2024-04-12T15:27:35.036Z,23.98
2024-04-12T15:30:02.209Z,24.54
2024-04-12T15:32:30.927Z,24.72
2024-04-12T15:34:58.213Z,25.03
2024-04-12T15:37:25.563Z,24.08
2024-04-12T15:39:55.340Z,24.09
2024-04-12T15:42:22.695Z,24.46
2024-04-12T15:44:50.165Z,23.93
2024-04-12T15:47:17.283Z,24.36
2024-04-12T15:49:47.594Z,24.63
2024-04-12T15:52:16.044Z,24.71
2024-04-12T15:54:48.891Z,25.11
2024-04-12T15:57:16.287Z,24.41
2024-04-12T15:59:43.660Z,24.23
2024-04-12T16:02:10.998Z,24.15
2024-04-12T16:04:38.303Z,23.33
2024-04-12T16:07:10.308Z,23.67
2024-04-12T16:09:41.592Z,23.82
2024-04-12T16:12:10.055Z,23.76
2024-04-12T16:14:37.400Z,24.28
2024-04-12T16:17:04.732Z,24.99
2024-04-12T16:19:36.968Z,25.07
2024-04-12T16:22:04.433Z,24.69
2024-04-12T16:24:36.380Z,24.56
2024-04-12T16:27:05.499Z,24.67
2024-04-12T16:29:38.645Z,24.22
2024-04-12T16:32:05.749Z,24.69
2024-04-12T16:34:33.331Z,25.40
2024-04-12T16:37:03.947Z,25.38
2024-04-12T16:39:31.299Z,25.39
2024-04-12T16:41:58.591Z,25.09
2024-04-12T16:44:25.530Z,26.41
2024-04-12T16:46:55.466Z,26.32
2024-04-12T16:49:22.762Z,27.39
2024-04-12T16:51:50.181Z,28.34
2024-04-12T16:54:26.033Z,28.11
2024-04-12T16:56:55.320Z,27.63
2024-04-12T16:59:23.288Z,27.15
2024-04-12T17:01:50.280Z,27.41
2024-04-12T17:04:18.105Z,28.00
2024-04-12T17:06:47.946Z,27.48
2024-04-12T17:09:15.754Z,28.37
2024-04-12T17:11:42.954Z,27.84
2024-04-12T17:14:10.328Z,28.20
2024-04-12T17:16:37.409Z,27.93
2024-04-12T17:19:06.350Z,27.62
2024-04-12T17:21:36.572Z,27.21
2024-04-12T17:24:03.673Z,26.90
2024-04-12T17:26:35.550Z,26.83
2024-04-12T17:29:07.788Z,27.18
2024-04-12T17:31:35.287Z,26.10
2024-04-12T17:34:09.204Z,26.96
2024-04-12T17:36:36.755Z,27.61
2024-04-12T17:39:07.277Z,25.91
2024-04-12T17:41:34.281Z,26.63
2024-04-12T17:44:01.631Z,26.01
2024-04-12T17:46:32.910Z,26.05
2024-04-12T17:49:00.508Z,25.76
2024-04-12T17:51:28.273Z,22.60
2024-04-12T17:53:55.657Z,24.28
2024-04-12T17:56:22.842Z,24.00
2024-04-12T17:58:53.525Z,21.13
2024-04-12T18:01:24.260Z,21.51
2024-04-12T18:03:55.338Z,21.85
2024-04-12T18:06:26.702Z,21.28
2024-04-12T18:09:12.938Z,19.93
2024-04-12T18:14:10.865Z,19.25
2024-04-12T18:18:32.261Z,17.88
2024-04-12T18:21:04.305Z,18.35
2024-04-12T18:23:33.978Z,18.53
2024-04-12T18:26:06.264Z,17.26
2024-04-12T18:28:33.567Z,18.09
2024-04-12T18:31:03.355Z,17.13
2024-04-12T18:33:30.712Z,17.86
2024-04-12T18:35:57.976Z,17.44
2024-04-12T18:38:24.920Z,17.68
2024-04-12T18:40:55.223Z,16.64
2024-04-12T18:43:23.268Z,16.43
2024-04-12T18:45:50.550Z,16.10
2024-04-12T18:48:17.899Z,16.41
2024-04-12T18:50:45.817Z,16.58
2024-04-12T18:53:18.324Z,16.62
2024-04-12T18:55:51.277Z,16.60
2024-04-12T18:58:18.619Z,16.98
2024-04-12T19:00:49.236Z,16.44
2024-04-12T19:03:16.707Z,16.39
2024-04-12T19:05:44.451Z,16.66
2024-04-12T19:08:12.467Z,16.56
2024-04-12T19:10:39.357Z,16.75
2024-04-12T19:13:08.024Z,16.41
2024-04-12T19:15:38.932Z,16.51
2024-04-12T19:18:08.871Z,16.60
2024-04-12T19:20:45.458Z,16.60
2024-04-12T19:23:12.515Z,15.92
2024-04-12T19:25:39.774Z,15.57
2024-04-12T19:28:06.816Z,16.04
2024-04-12T19:30:37.480Z,16.48
2024-04-12T19:33:04.984Z,15.85
2024-04-12T19:35:32.448Z,15.83
2024-04-12T19:37:59.735Z,15.73
2024-04-12T19:40:27.013Z,16.03
2024-04-12T19:42:54.141Z,15.82
2024-04-12T19:45:24.089Z,16.51
2024-04-12T19:47:54.950Z,16.04
2024-04-12T19:50:22.013Z,15.91
2024-04-12T19:52:54.689Z,16.09
2024-04-12T19:55:24.478Z,16.51
2024-04-12T19:57:52.662Z,16.83
2024-04-12T20:00:21.046Z,16.75
2024-04-12T20:02:48.345Z,16.32
2024-04-12T20:05:16.233Z,15.97
2024-04-12T20:07:43.197Z,15.55
2024-04-12T20:10:15.203Z,16.05
2024-04-12T20:12:42.788Z,15.07
2024-04-12T20:15:09.704Z,15.75
2024-04-12T20:17:41.173Z,15.11
2024-04-12T20:20:11.507Z,14.89
2024-04-12T20:22:38.787Z,14.59
2024-04-12T20:25:06.481Z,15.02
2024-04-12T20:27:33.665Z,14.77
2024-04-12T20:30:01.058Z,15.26
2024-04-12T20:32:30.927Z,15.47
2024-04-12T20:34:57.867Z,15.61
2024-04-12T20:37:25.502Z,14.52
2024-04-12T20:39:53.326Z,14.57
2024-04-12T20:42:20.580Z,15.29
2024-04-12T20:44:47.947Z,15.01
2024-04-12T20:47:17.976Z,14.86
2024-04-12T20:49:45.955Z,15.45
2024-04-12T20:52:13.258Z,14.66
2024-04-12T20:54:40.107Z,14.44
2024-04-12T20:57:10.246Z,14.12
2024-04-12T20:59:39.448Z,14.75
2024-04-12T21:02:06.337Z,14.00
2024-04-12T21:04:40.191Z,14.71
2024-04-12T21:07:09.726Z,14.17
2024-04-12T21:09:38.458Z,13.95
2024-04-12T21:12:06.060Z,14.22
2024-04-12T21:14:33.030Z,13.66
2024-04-12T21:16:59.884Z,14.56
2024-04-12T21:19:26.885Z,14.11
2024-04-12T21:21:54.117Z,14.01
2024-04-12T21:24:21.058Z,13.71
2024-04-12T21:26:47.996Z,13.43
2024-04-12T21:29:14.889Z,13.43
2024-04-12T21:31:42.007Z,14.11
2024-04-12T21:34:09.416Z,13.72
2024-04-12T21:36:36.833Z,13.61
2024-04-12T21:39:03.776Z,13.68
2024-04-12T21:41:30.964Z,13.93
2024-04-12T21:43:58.107Z,13.62
2024-04-12T21:46:26.264Z,13.81
2024-04-12T21:48:54.358Z,13.47
2024-04-12T21:51:22.351Z,14.02
2024-04-12T21:53:52.395Z,13.72
2024-04-12T21:56:20.227Z,13.01
2024-04-12T21:58:48.643Z,13.13
2024-04-12T22:01:21.101Z,12.99
2024-04-12T22:03:49.153Z,12.96
2024-04-12T22:06:17.009Z,12.57
2024-04-12T22:08:44.913Z,12.61
2024-04-12T22:11:12.189Z,12.57
2024-04-12T22:13:39.570Z,12.62
2024-04-12T22:16:07.879Z,12.61
2024-04-12T22:18:35.586Z,12.56
2024-04-12T22:21:03.475Z,12.23
2024-04-12T22:23:31.582Z,12.34
2024-04-12T22:25:59.039Z,12.14
2024-04-12T22:28:31.944Z,12.32
2024-04-12T22:30:59.331Z,12.31
2024-04-12T22:33:26.285Z,12.20
2024-04-12T22:35:53.550Z,12.14
2024-04-12T22:38:20.408Z,12.03
2024-04-12T22:40:47.761Z,12.01
2024-04-12T22:43:14.653Z,11.98
2024-04-12T22:45:41.983Z,11.83
2024-04-12T22:48:11.724Z,11.86
2024-04-12T22:50:38.669Z,11.96
2024-04-12T22:53:06.212Z,12.33
2024-04-12T22:55:33.135Z,12.44
2024-04-12T22:58:00.335Z,12.23
2024-04-12T23:00:28.118Z,12.00
2024-04-12T23:02:56.180Z,11.89
2024-04-12T23:05:23.457Z,11.98
2024-04-12T23:07:50.773Z,11.91
2024-04-12T23:10:18.201Z,11.73
2024-04-12T23:12:45.101Z,11.69
2024-04-12T23:15:12.365Z,11.72
2024-04-12T23:17:42.551Z,11.81
2024-04-12T23:20:09.569Z,11.77
2024-04-12T23:22:36.898Z,11.81
2024-04-12T23:25:03.932Z,11.88
2024-04-12T23:27:30.890Z,11.86
2024-04-12T23:30:00.867Z,11.84
2024-04-12T23:32:27.840Z,11.89
2024-04-12T23:34:55.211Z,11.82
2024-04-12T23:37:22.674Z,11.65
2024-04-12T23:39:50.887Z,11.59
2024-04-12T23:42:17.771Z,11.56
2024-04-12T23:44:47.758Z,11.54
2024-04-12T23:47:15.437Z,11.48
2024-04-12T23:49:42.589Z,11.35
2024-04-12T23:52:09.447Z,11.44
2024-04-12T23:54:36.878Z,11.24
2024-04-12T23:57:05.644Z,11.15
2024-04-12T23:59:35.546Z,11.24
